METAR Data
IDs: Format: Raw Decoded Include TAF

Data at: 0948 UTC 07 Dec 2021

KRSW 070922Z 01003KT 10SM FEW003 16/15 A3007 RMK AO2 T01610150 $
KRSW 070853Z 10003KT 10SM CLR 16/15 A3005 RMK AO2 SLP174 T01610150 56012 $
KRSW 070753Z 00000KT 10SM FEW002 16/15 A3006 RMK AO2 SLP177 T01610150 $
KRSW 070747Z 00000KT 3SM BR SCT002 16/15 A3006 RMK AO2 $
KRSW 070739Z 00000KT 1 3/4SM BR SCT002 16/14 A3006 RMK AO2 T01560144 $
KRSW 070724Z 00000KT 5SM BR FEW002 17/16 A3007 RMK AO2 T01670156 $
KRSW 070653Z 00000KT 6SM BR CLR 17/16 A3007 RMK AO2 SLP181 T01720161 $
KRSW 070553Z 00000KT 10SM CLR 18/17 A3009 RMK AO2 SLP186 T01780167 10222 20178 56009 $
KRSW 070453Z 00000KT 10SM CLR 18/17 A3009 RMK AO2 SLP188 T01830167 402780172 $
KRSW 070353Z 00000KT 10SM CLR 19/17 A3011 RMK AO2 SLP193 T01890167 $
KRSW 070253Z 00000KT 10SM CLR 19/16 A3012 RMK AO2 SLP196 T01940161 51017 $
KRSW 070153Z 00000KT 10SM CLR 21/16 A3011 RMK AO2 SLP193 T02060161 $
KRSW 070053Z 00000KT 10SM CLR 21/17 A3009 RMK AO2 SLP187 T02110172 $
KRSW 062353Z 00000KT 10SM CLR 22/18 A3007 RMK AO2 SLP179 T02170178 10278 20217 53010 $
KRSW 062308Z 28003KT 10SM SCT002 23/17 A3006 RMK AO2 T02330172 $
KRSW 062253Z 00000KT 10SM CLR 23/17 A3005 RMK AO2 SLP174 T02330172
KRSW 062153Z 26004KT 10SM CLR 26/17 A3004 RMK AO2 SLP170 T02560167
KRSW 062053Z 29007KT 10SM CLR 27/17 A3004 RMK AO2 SLP169 T02670172 56014
KRSW 061953Z 27006KT 10SM CLR 27/17 A3005 RMK AO2 SLP174 T02720172
KRSW 061853Z 24011KT 10SM CLR 27/18 A3006 RMK AO2 SLP176 T02720178
KRSW 061753Z 22006KT 10SM CLR 27/19 A3008 RMK AO2 SLP183 T02720189 10272 20172 58025
KRSW 061653Z 00000KT 10SM FEW026 SCT033 26/19 A3011 RMK AO2 SLP193 T02560194
KRSW 061553Z 02003KT 10SM FEW070 26/20 A3013 RMK AO2 SLP201 T02610200
KRSW 061525Z VRB03KT 10SM CLR 24/20 A3014 RMK AO2 T02440200
KRSW 061453Z 00000KT 10SM FEW004 22/20 A3015 RMK AO2 SLP208 T02220200 51008
KRSW 061409Z 08003KT 10SM FEW002 SCT034 20/19 A3014 RMK AO2 T02000189
KRSW 061353Z 00000KT 9SM BKN002 BKN033 18/18 A3014 RMK AO2 SLP205 T01830183
KRSW 061351Z 00000KT 9SM BKN002 BKN033 18/18 A3014 RMK AO2
KRSW 061343Z 00000KT 2SM BR BKN002 OVC033 18/18 A3014 RMK AO2 T01830178
KRSW 061334Z 00000KT 1/2SM FG VV002 18/18 A3014 RMK AO2 T01780178
KRSW 061253Z 06003KT 1/4SM FG VV002 17/17 A3013 RMK AO2 SLP200 T01720167
KRSW 061243Z 07003KT M1/4SM FG VV002 17/17 A3013 RMK AO2 T01720167
KRSW 061209Z 00000KT 1/4SM FG VV002 17/17 A3011 RMK AO2 T01720167
KRSW 061204Z 00000KT 1 1/4SM BR OVC002 17/17 A3011 RMK AO2 VIS 1/4V5 T01720167
KRSW 061153Z 00000KT 4SM BR BKN002 17/17 A3011 RMK AO2 SLP194 T01720167 10189 20172 51005
KRSW 061151Z 00000KT 4SM BR BKN002 17/17 A3011 RMK AO2
KRSW 061133Z 00000KT 9SM SCT002 SCT027 17/17 A3011 RMK AO2 T01720167
KRSW 061119Z 00000KT 8SM SCT002 BKN027 17/17 A3011 RMK AO2 T01720167
KRSW 061113Z 06004KT 2 1/2SM BR BKN002 OVC027 17/17 A3010 RMK AO2 T01720167
KRSW 061106Z 06003KT 1/2SM FG BKN002 OVC027 18/17 A3010 RMK AO2 T01780172
KRSW 061053Z 00000KT 1/4SM FG VV002 18/17 A3010 RMK AO2 SLP192 T01780172
KRSW 060953Z AUTO 00000KT 1/4SM FG VV002 18/17 A3010 RMK AO2 SLP190 T01780172
KRSW 060926Z AUTO 00000KT 1/4SM FG VV002 18/17 A3009 RMK AO2 T01780172
KRSW 060853Z AUTO 00000KT 1/2SM FG VV002 18/17 A3010 RMK AO2 SLP189 T01780172 56005
KRSW 060836Z AUTO 11003KT 1/2SM FG VV002 18/17 A3010 RMK AO2 T01780172
KRSW 060753Z AUTO 10003KT 1/4SM FG VV002 18/17 A3010 RMK AO2 SLP190 T01780172
KRSW 060653Z AUTO 00000KT 1/4SM FG VV002 18/18 A3011 RMK AO2 SLP193 T01830178
KRSW 060626Z AUTO 07003KT 1/4SM FG VV002 19/18 A3011 RMK AO2 T01890178
KRSW 060615Z AUTO 08003KT 1/2SM FG VV002 19/18 A3011 RMK AO2 T01890178
KRSW 060604Z AUTO 10004KT 1 3/4SM BR OVC003 19/18 A3011 RMK AO2 T01890178
KRSW 060553Z AUTO 09003KT 8SM OVC003 18/18 A3011 RMK AO2 SLP194 T01830178 10222 20183 58004
KRSW 060534Z AUTO 05003KT 10SM BKN003 18/17 A3012 RMK AO2 T01830172
KRSW 060518Z AUTO 07003KT 10SM FEW003 18/18 A3012 RMK AO2 T01830178
KRSW 060453Z AUTO 07005KT 10SM CLR 19/18 A3012 RMK AO2 SLP197 T01890178 402780150
KRSW 060353Z 06007KT 10SM CLR 20/18 A3014 RMK AO2 SLP202 T02000183
KRSW 060253Z 06006KT 10SM CLR 20/18 A3012 RMK AO2 SLP198 T02000183 53010
KRSW 060153Z 05007KT 10SM CLR 21/18 A3011 RMK AO2 SLP195 T02060183
KRSW 060053Z 07007KT 10SM CLR 21/18 A3010 RMK AO2 SLP191 T02110178
KRSW 052353Z 07006KT 10SM CLR 22/17 A3010 RMK AO2 SLP188 T02170172 10278 20217 53010
KRSW 052253Z 07004KT 10SM CLR 23/17 A3008 RMK AO2 SLP183 T02280172
KRSW 052153Z 09008KT 10SM CLR 26/17 A3007 RMK AO2 SLP179 T02560172